createdAt,value
2022-09-27T00:00:07.909Z,98979.97
2022-09-27T00:02:34.481Z,98980.91
2022-09-27T00:05:00.993Z,98981.50
2022-09-27T00:07:27.444Z,98976.69
2022-09-27T00:09:53.873Z,98974.91
2022-09-27T00:12:20.333Z,98972.53
2022-09-27T00:14:46.790Z,98979.38
2022-09-27T00:17:13.250Z,98975.81
2022-09-27T00:19:39.702Z,98962.59
2022-09-27T00:22:06.302Z,98977.34
2022-09-27T00:24:32.876Z,98971.16
2022-09-27T00:26:59.483Z,98971.16
2022-09-27T00:29:26.099Z,98966.97
2022-09-27T00:31:52.559Z,98957.97
2022-09-27T00:34:24.129Z,98971.59
2022-09-27T00:36:51.594Z,98956.97
2022-09-27T00:39:18.360Z,98956.97
2022-09-27T00:41:45.199Z,98961.81
2022-09-27T00:44:27.040Z,98957.88
2022-09-27T00:47:04.522Z,98954.09
2022-09-27T00:49:54.450Z,98943.69
2022-09-27T00:52:42.141Z,98944.13
2022-09-27T00:55:15.777Z,98941.81
2022-09-27T00:57:43.467Z,98938.78
2022-09-27T01:00:12.023Z,98943.88
2022-09-27T01:02:41.110Z,98932.88
2022-09-27T01:05:08.389Z,98934.66
2022-09-27T01:07:35.057Z,98926.28
2022-09-27T01:10:01.897Z,98926.88
2022-09-27T01:12:42.807Z,98926.91
2022-09-27T01:15:16.109Z,98920.38
2022-09-27T01:17:57.871Z,98915.09
2022-09-27T01:20:52.308Z,98924.03
2022-09-27T01:23:40.205Z,98921.25
2022-09-27T01:26:09.614Z,98922.81
2022-09-27T01:28:58.119Z,98921.16
2022-09-27T01:31:39.728Z,98917.78
2022-09-27T01:34:30.796Z,98924.66
2022-09-27T01:37:09.427Z,98922.94
2022-09-27T01:39:59.625Z,98914.72
2022-09-27T01:42:31.496Z,98912.03
2022-09-27T01:45:07.489Z,98903.50
2022-09-27T01:47:44.870Z,98907.88
2022-09-27T01:50:14.488Z,98902.06
2022-09-27T01:52:51.304Z,98902.13
2022-09-27T01:55:19.733Z,98906.50
2022-09-27T01:57:58.138Z,98899.75
2022-09-27T02:00:25.117Z,98899.19
2022-09-27T02:03:22.086Z,98893.34
2022-09-27T02:05:53.792Z,98895.63
2022-09-27T02:08:32.059Z,98890.72
2022-09-27T02:11:00.775Z,98892.13
2022-09-27T02:13:43.021Z,98890.47
2022-09-27T02:16:31.158Z,98887.91
2022-09-27T02:19:17.656Z,98884.72
2022-09-27T02:21:58.371Z,98885.34
2022-09-27T02:24:32.411Z,98879.38
2022-09-27T02:27:10.299Z,98870.22
2022-09-27T02:29:50.973Z,98871.16
2022-09-27T02:32:17.516Z,98861.59
2022-09-27T02:34:45.056Z,98869.94
2022-09-27T02:37:11.835Z,98872.53
2022-09-27T02:39:38.564Z,98865.94
2022-09-27T02:42:05.633Z,98862.34
2022-09-27T02:44:32.322Z,98859.94
2022-09-27T02:47:07.737Z,98860.22
2022-09-27T02:50:02.218Z,98859.69
2022-09-27T02:52:37.939Z,98863.91
2022-09-27T02:55:20.715Z,98854.50
2022-09-27T02:57:56.484Z,98857.38
2022-09-27T03:00:30.399Z,98859.41
2022-09-27T03:03:04.060Z,98858.72
2022-09-27T03:05:35.013Z,98854.97
2022-09-27T03:08:01.674Z,98854.75
2022-09-27T03:10:29.044Z,98851.88
2022-09-27T03:12:57.397Z,98847.41
2022-09-27T03:15:24.239Z,98842.72
2022-09-27T03:17:50.701Z,98840.47
2022-09-27T03:20:18.003Z,98842.09
2022-09-27T03:22:44.512Z,98841.09
2022-09-27T03:25:11.517Z,98841.00
2022-09-27T03:27:38.055Z,98843.31
2022-09-27T03:30:06.335Z,98841.34
2022-09-27T03:32:32.781Z,98840.75
2022-09-27T03:34:59.266Z,98841.06
2022-09-27T03:37:27.076Z,98840.63
2022-09-27T03:39:53.580Z,98834.25
2022-09-27T03:42:20.003Z,98829.00
2022-09-27T03:44:46.445Z,98833.53
2022-09-27T03:47:12.882Z,98828.81
2022-09-27T03:49:39.336Z,98822.16
2022-09-27T03:52:05.790Z,98821.06
2022-09-27T03:54:32.742Z,98821.88
2022-09-27T03:56:59.216Z,98819.34
2022-09-27T03:59:25.668Z,98816.75
2022-09-27T04:01:52.189Z,98824.78
2022-09-27T04:04:18.807Z,98821.44
2022-09-27T04:06:45.241Z,98815.13
2022-09-27T04:09:11.755Z,98815.00
2022-09-27T04:11:38.228Z,98813.03
2022-09-27T04:14:05.731Z,98806.53
2022-09-27T04:16:32.794Z,98808.44
2022-09-27T04:18:59.421Z,98807.09
2022-09-27T04:21:25.848Z,98807.88
2022-09-27T04:23:52.285Z,98807.09
2022-09-27T04:26:18.840Z,98805.94
2022-09-27T04:28:48.836Z,98808.19
2022-09-27T04:31:17.450Z,98806.66
2022-09-27T04:33:44.010Z,98810.59
2022-09-27T04:36:28.192Z,98806.56
2022-09-27T04:39:02.771Z,98802.00
2022-09-27T04:41:29.573Z,98809.38
2022-09-27T04:43:59.223Z,98812.81
2022-09-27T04:46:27.212Z,98808.28
2022-09-27T04:48:53.732Z,98800.00
2022-09-27T04:51:20.304Z,98800.19
2022-09-27T04:53:47.648Z,98801.66
2022-09-27T04:56:15.655Z,98805.63
2022-09-27T04:58:42.130Z,98805.63
2022-09-27T05:01:09.514Z,98803.72
2022-09-27T05:03:36.380Z,98808.06
2022-09-27T05:06:02.960Z,98812.88
2022-09-27T05:08:29.517Z,98811.44
2022-09-27T05:10:56.073Z,98804.81
2022-09-27T05:13:23.240Z,98804.97
2022-09-27T05:15:49.801Z,98812.13
2022-09-27T05:18:17.417Z,98807.09
2022-09-27T05:20:44.677Z,98800.50
2022-09-27T05:23:11.301Z,98800.53
2022-09-27T05:25:37.780Z,98804.50
2022-09-27T05:28:05.242Z,98801.75
2022-09-27T05:30:31.820Z,98800.03
2022-09-27T05:32:58.403Z,98801.91
2022-09-27T05:35:24.856Z,98799.22
2022-09-27T05:37:56.814Z,98797.16
2022-09-27T05:40:40.443Z,98799.91
2022-09-27T05:43:07.572Z,98798.16
2022-09-27T05:45:34.116Z,98801.47
2022-09-27T05:48:00.649Z,98796.50
2022-09-27T05:50:27.461Z,98796.22
2022-09-27T05:52:54.178Z,98801.03
2022-09-27T05:55:21.321Z,98796.88
2022-09-27T05:58:01.900Z,98790.41
2022-09-27T06:00:29.282Z,98798.97
2022-09-27T06:02:57.287Z,98799.72
2022-09-27T06:05:24.907Z,98801.16
2022-09-27T06:07:51.793Z,98796.91
2022-09-27T06:10:19.419Z,98796.69
2022-09-27T06:12:46.636Z,98805.22
2022-09-27T06:15:13.163Z,98802.69
2022-09-27T06:17:39.665Z,98803.53
2022-09-27T06:20:07.686Z,98803.69
2022-09-27T06:22:34.177Z,98799.94
2022-09-27T06:25:00.632Z,98806.22
2022-09-27T06:27:27.138Z,98807.63
2022-09-27T06:29:53.565Z,98805.63
2022-09-27T06:32:20.102Z,98805.44
2022-09-27T06:34:46.534Z,98806.69
2022-09-27T06:37:13.133Z,98804.13
2022-09-27T06:39:39.563Z,98811.78
2022-09-27T06:42:06.789Z,98810.81
2022-09-27T06:44:33.262Z,98803.16
2022-09-27T06:46:59.698Z,98805.88
2022-09-27T06:49:26.161Z,98805.16
2022-09-27T06:51:53.765Z,98810.69
2022-09-27T06:54:20.209Z,98816.97
2022-09-27T06:56:49.779Z,98819.00
2022-09-27T06:59:34.873Z,98821.78
2022-09-27T07:02:01.917Z,98827.72
2022-09-27T07:04:28.456Z,98827.25
2022-09-27T07:06:55.212Z,98830.91
2022-09-27T07:09:21.819Z,98821.78
2022-09-27T07:11:48.486Z,98830.16
2022-09-27T07:14:16.372Z,98831.25
2022-09-27T07:16:43.632Z,98823.66
2022-09-27T07:19:11.736Z,98824.44
2022-09-27T07:21:38.159Z,98827.47
2022-09-27T07:24:04.701Z,98831.66
2022-09-27T07:26:31.237Z,98833.91
2022-09-27T07:28:57.826Z,98831.81
2022-09-27T07:31:24.328Z,98847.25
2022-09-27T07:33:52.724Z,98842.44
2022-09-27T07:36:19.227Z,98852.81
2022-09-27T07:38:45.682Z,98853.66
2022-09-27T07:41:14.217Z,98854.06
2022-09-27T07:43:41.936Z,98859.91
2022-09-27T07:46:08.457Z,98850.75
2022-09-27T07:48:34.949Z,98860.19
2022-09-27T07:51:01.446Z,98856.69
2022-09-27T07:53:28.270Z,98862.75
2022-09-27T07:55:54.916Z,98863.69
2022-09-27T07:58:22.259Z,98870.50
2022-09-27T08:00:48.827Z,98871.84
2022-09-27T08:03:16.658Z,98869.72
2022-09-27T08:05:44.514Z,98868.78
2022-09-27T08:08:11.361Z,98869.44
2022-09-27T08:10:39.871Z,98873.41
2022-09-27T08:13:06.381Z,98874.28
2022-09-27T08:15:33.853Z,98879.00
2022-09-27T08:18:00.706Z,98873.56
2022-09-27T08:20:27.195Z,98872.31
2022-09-27T08:22:53.756Z,98882.09
2022-09-27T08:25:22.544Z,98880.38
2022-09-27T08:27:57.041Z,98882.78
2022-09-27T08:30:24.216Z,98892.31
2022-09-27T08:32:55.554Z,98894.66
2022-09-27T08:35:22.355Z,98896.53
2022-09-27T08:38:02.427Z,98891.59
2022-09-27T08:40:44.929Z,98888.53
2022-09-27T08:43:36.671Z,98897.75
2022-09-27T08:46:21.308Z,98898.81
2022-09-27T08:48:51.638Z,98897.78
2022-09-27T08:51:21.670Z,98901.97
2022-09-27T08:53:54.477Z,98899.66
2022-09-27T08:56:21.567Z,98899.63
2022-09-27T08:59:14.605Z,98901.03
2022-09-27T09:01:41.431Z,98909.28
2022-09-27T09:04:09.294Z,98905.09
2022-09-27T09:06:58.725Z,98904.56
2022-09-27T09:09:31.261Z,98910.63
2022-09-27T09:12:41.477Z,98910.13
2022-09-27T09:15:22.110Z,98914.47
2022-09-27T09:17:54.653Z,98911.03
2022-09-27T09:20:42.975Z,98911.00
2022-09-27T09:23:28.099Z,98928.69
2022-09-27T09:26:09.860Z,98921.03
2022-09-27T09:28:51.654Z,98922.56
2022-09-27T09:31:43.207Z,98925.50
2022-09-27T09:34:36.088Z,98920.59
2022-09-27T09:37:05.972Z,98915.28
2022-09-27T09:39:50.634Z,98925.41
2022-09-27T09:42:26.790Z,98918.75
2022-09-27T09:45:02.736Z,98927.00
2022-09-27T09:47:32.124Z,98924.06
2022-09-27T09:50:01.566Z,98928.84
2022-09-27T09:52:44.113Z,98927.31
2022-09-27T09:55:23.198Z,98926.44
2022-09-27T09:58:08.744Z,98921.59
2022-09-27T10:00:35.197Z,98929.81
2022-09-27T10:03:03.358Z,98924.94
2022-09-27T10:05:29.921Z,98934.69
2022-09-27T10:07:59.206Z,98928.34
2022-09-27T10:10:25.879Z,98936.78
2022-09-27T10:12:52.668Z,98929.38
2022-09-27T10:15:21.856Z,98928.72
2022-09-27T10:17:51.084Z,98932.16
2022-09-27T10:20:34.316Z,98938.78
2022-09-27T10:23:13.985Z,98936.47
2022-09-27T10:25:49.901Z,98937.41
2022-09-27T10:28:37.330Z,98932.16
2022-09-27T10:31:06.427Z,98942.84
2022-09-27T10:33:33.702Z,98938.94
2022-09-27T10:36:01.270Z,98938.75
2022-09-27T10:38:35.502Z,98943.31
2022-09-27T10:41:51.424Z,98943.91
2022-09-27T10:44:18.126Z,98938.28
2022-09-27T10:46:46.618Z,98945.53
2022-09-27T10:49:22.884Z,98942.59
2022-09-27T10:51:55.276Z,98947.63
2022-09-27T10:54:29.825Z,98948.69
2022-09-27T10:57:16.315Z,98956.78
2022-09-27T10:59:45.778Z,98946.56
2022-09-27T11:02:24.683Z,98944.22
2022-09-27T11:05:13.851Z,98948.41
2022-09-27T11:07:53.457Z,98950.22
2022-09-27T11:10:48.612Z,98950.97
2022-09-27T11:13:17.587Z,98959.91
2022-09-27T11:15:53.263Z,98966.66
2022-09-27T11:18:38.417Z,98959.75
2022-09-27T11:21:33.789Z,98953.03
2022-09-27T11:24:12.448Z,98963.94
2022-09-27T11:26:49.938Z,98967.25
2022-09-27T11:29:45.314Z,98966.56
2022-09-27T11:32:36.205Z,98957.91
2022-09-27T11:35:10.744Z,98967.22
2022-09-27T11:38:12.125Z,98966.56
2022-09-27T11:41:00.461Z,98972.94
2022-09-27T11:43:39.967Z,98971.75
2022-09-27T11:46:41.735Z,98973.22
2022-09-27T11:49:30.358Z,98979.84
2022-09-27T11:52:18.576Z,98978.03
2022-09-27T11:55:06.337Z,98991.69
2022-09-27T11:57:36.014Z,98985.34
2022-09-27T12:00:10.881Z,98989.66
2022-09-27T12:03:15.106Z,98983.34
2022-09-27T12:05:58.376Z,98988.41
2022-09-27T12:08:38.893Z,98993.03
2022-09-27T12:11:14.709Z,98994.56
2022-09-27T12:13:44.679Z,98992.53
2022-09-27T12:16:11.874Z,98998.19
2022-09-27T12:18:39.460Z,98991.34
2022-09-27T12:21:09.659Z,99003.16
2022-09-27T12:23:45.898Z,99011.97
2022-09-27T12:26:44.965Z,99004.97
2022-09-27T12:29:20.864Z,99003.13
2022-09-27T12:31:52.895Z,99006.59
2022-09-27T12:34:57.183Z,99000.56
2022-09-27T12:37:45.799Z,99006.44
2022-09-27T12:40:20.525Z,99011.00
2022-09-27T12:43:02.217Z,99012.66
2022-09-27T12:45:37.651Z,99006.91
2022-09-27T12:48:23.406Z,99003.59
2022-09-27T12:50:53.854Z,99013.78
2022-09-27T12:53:30.589Z,99014.47
2022-09-27T12:55:59.634Z,99015.03
2022-09-27T12:58:44.244Z,99014.25
2022-09-27T13:01:26.210Z,99013.53
2022-09-27T13:03:52.720Z,99021.53
2022-09-27T13:06:22.101Z,99016.53
2022-09-27T13:08:54.675Z,99016.97
2022-09-27T13:11:39.438Z,99018.22
2022-09-27T13:14:06.503Z,99019.47
2022-09-27T13:16:44.817Z,99028.69
2022-09-27T13:19:36.194Z,99019.00
2022-09-27T13:22:04.916Z,99021.75
2022-09-27T13:24:39.485Z,99025.66
2022-09-27T13:27:27.780Z,99024.88
2022-09-27T13:30:09.505Z,99020.00
2022-09-27T13:32:36.572Z,99032.00
2022-09-27T13:35:21.475Z,99033.47
2022-09-27T13:37:52.966Z,99041.84
2022-09-27T13:40:33.284Z,99043.38
2022-09-27T13:43:13.186Z,99043.25
2022-09-27T13:46:01.359Z,99043.06
2022-09-27T13:48:47.830Z,99052.94
2022-09-27T13:51:28.680Z,99041.34
2022-09-27T13:54:10.588Z,99045.09
2022-09-27T13:56:38.078Z,99057.94
2022-09-27T13:59:10.882Z,99052.69
2022-09-27T14:01:43.075Z,99041.19
2022-09-27T14:04:29.764Z,99052.50
2022-09-27T14:07:00.112Z,99050.75
2022-09-27T14:09:30.419Z,99056.53
2022-09-27T14:11:59.754Z,99059.41
2022-09-27T14:14:29.235Z,99060.38
2022-09-27T14:16:59.105Z,99070.63
2022-09-27T14:19:26.130Z,99066.59
2022-09-27T14:21:53.368Z,99080.34
2022-09-27T14:24:30.253Z,99081.19
2022-09-27T14:27:06.400Z,99085.06
2022-09-27T14:29:40.888Z,99089.31
2022-09-27T14:32:11.973Z,99090.69
2022-09-27T14:34:39.700Z,99090.91
2022-09-27T14:37:26.406Z,99094.25
2022-09-27T14:39:54.493Z,99086.72
2022-09-27T14:42:23.020Z,99092.53
2022-09-27T14:44:50.129Z,99086.63
2022-09-27T14:47:23.134Z,99081.19
2022-09-27T14:49:54.741Z,99083.34
2022-09-27T14:52:27.857Z,99089.81
2022-09-27T14:55:05.897Z,99090.97
2022-09-27T14:57:34.321Z,99080.28
2022-09-27T15:00:05.138Z,99087.19
2022-09-27T15:02:33.401Z,99096.75
2022-09-27T15:04:59.950Z,99088.38
2022-09-27T15:07:27.813Z,99091.78
2022-09-27T15:09:54.364Z,99092.34
2022-09-27T15:12:25.635Z,99096.69
2022-09-27T15:14:54.325Z,99095.06
2022-09-27T15:17:21.968Z,99087.56
2022-09-27T15:20:20.070Z,99099.63
2022-09-27T15:22:47.449Z,99094.41
2022-09-27T15:25:34.762Z,99098.63
2022-09-27T15:28:07.293Z,99096.75
2022-09-27T15:30:42.243Z,99106.78
2022-09-27T15:33:20.601Z,99105.09
2022-09-27T15:35:50.904Z,99107.47
2022-09-27T15:38:29.630Z,99109.38
2022-09-27T15:41:04.111Z,99108.06
2022-09-27T15:43:52.632Z,99106.63
2022-09-27T15:46:22.455Z,99108.50
2022-09-27T15:49:17.733Z,99115.63
2022-09-27T15:51:49.119Z,99119.03
2022-09-27T15:54:20.318Z,99114.72
2022-09-27T15:56:51.208Z,99120.91
2022-09-27T15:59:26.644Z,99116.13
2022-09-27T16:01:58.790Z,99115.00
2022-09-27T16:04:26.354Z,99120.69
2022-09-27T16:06:56.081Z,99123.09
2022-09-27T16:09:22.584Z,99129.13
2022-09-27T16:11:50.171Z,99135.25
2022-09-27T16:14:19.154Z,99130.44
2022-09-27T16:16:47.034Z,99145.69
2022-09-27T16:19:13.650Z,99142.22
2022-09-27T16:21:42.789Z,99140.75
2022-09-27T16:24:10.617Z,99139.00
2022-09-27T16:26:37.761Z,99143.75
2022-09-27T16:29:05.254Z,99151.59
2022-09-27T16:31:31.776Z,99147.41
2022-09-27T16:33:58.424Z,99157.06
2022-09-27T16:36:24.916Z,99147.69
2022-09-27T16:38:51.472Z,99151.38
2022-09-27T16:41:20.010Z,99160.44
2022-09-27T16:43:47.127Z,99152.56
2022-09-27T16:46:16.011Z,99156.91
2022-09-27T16:48:42.777Z,99155.94
2022-09-27T16:51:37.136Z,99158.81
2022-09-27T16:54:07.937Z,99162.47
2022-09-27T16:56:35.337Z,99159.41
2022-09-27T16:59:04.295Z,99164.13
2022-09-27T17:01:31.533Z,99168.50
2022-09-27T17:03:59.794Z,99162.81
2022-09-27T17:06:28.831Z,99159.50
2022-09-27T17:08:56.118Z,99166.16
2022-09-27T17:11:23.471Z,99168.03
2022-09-27T17:13:55.333Z,99167.38
2022-09-27T17:16:25.458Z,99171.41
2022-09-27T17:18:54.150Z,99177.66
2022-09-27T17:21:28.115Z,99174.72
2022-09-27T17:23:56.941Z,99181.13
2022-09-27T17:26:24.621Z,99178.47
2022-09-27T17:28:55.462Z,99180.09
2022-09-27T17:31:22.392Z,99178.88
2022-09-27T17:33:56.808Z,99185.97
2022-09-27T17:36:27.426Z,99173.13
2022-09-27T17:38:54.235Z,99178.34
2022-09-27T17:41:24.192Z,99189.28
2022-09-27T17:43:55.636Z,99193.66
2022-09-27T17:46:24.426Z,99191.13
2022-09-27T17:49:09.533Z,99187.84
2022-09-27T17:51:38.376Z,99191.22
2022-09-27T17:54:07.320Z,99196.34
2022-09-27T17:56:38.239Z,99196.69
2022-09-27T17:59:05.020Z,99197.88
2022-09-27T18:01:32.238Z,99198.09
2022-09-27T18:04:00.621Z,99201.56
2022-09-27T18:06:28.116Z,99192.50
2022-09-27T18:08:55.650Z,99196.81
2022-09-27T18:11:28.523Z,99205.66
2022-09-27T18:13:56.625Z,99200.00
2022-09-27T18:16:29.545Z,99207.16
2022-09-27T18:18:56.568Z,99202.56
2022-09-27T18:21:23.724Z,99214.41
2022-09-27T18:23:54.174Z,99213.03
2022-09-27T18:26:24.024Z,99219.19
2022-09-27T18:28:55.545Z,99221.16
2022-09-27T18:31:23.039Z,99221.31
2022-09-27T18:33:50.152Z,99218.94
2022-09-27T18:36:25.023Z,99224.00
2022-09-27T18:38:54.533Z,99221.78
2022-09-27T18:41:22.459Z,99219.22
2022-09-27T18:43:49.654Z,99227.16
2022-09-27T18:46:35.107Z,99228.13
2022-09-27T18:49:03.887Z,99231.91
2022-09-27T18:51:30.938Z,99231.72
2022-09-27T18:54:09.524Z,99236.16
2022-09-27T18:56:39.192Z,99231.28
2022-09-27T18:59:08.668Z,99243.44
2022-09-27T19:01:39.492Z,99239.38
2022-09-27T19:04:07.662Z,99241.25
2022-09-27T19:06:34.246Z,99248.38
2022-09-27T19:09:00.851Z,99243.16
2022-09-27T19:11:27.652Z,99245.69
2022-09-27T19:13:56.246Z,99249.97
2022-09-27T19:16:23.873Z,99249.31
2022-09-27T19:18:50.726Z,99256.06
2022-09-27T19:21:22.316Z,99252.59
2022-09-27T19:23:51.268Z,99264.28
2022-09-27T19:26:21.298Z,99257.09
2022-09-27T19:28:48.261Z,99262.66
2022-09-27T19:31:20.302Z,99253.16
2022-09-27T19:33:47.194Z,99254.16
2022-09-27T19:36:16.049Z,99265.41
2022-09-27T19:38:45.878Z,99260.38
2022-09-27T19:41:16.101Z,99264.34
2022-09-27T19:43:47.401Z,99258.22
2022-09-27T19:46:15.920Z,99256.63
2022-09-27T19:48:43.575Z,99268.81
2022-09-27T19:51:23.833Z,99264.78
2022-09-27T19:53:50.834Z,99267.88
2022-09-27T19:56:17.634Z,99275.91
2022-09-27T19:58:44.727Z,99276.41
2022-09-27T20:01:16.162Z,99274.84
2022-09-27T20:03:43.873Z,99276.41
2022-09-27T20:06:12.640Z,99262.16
2022-09-27T20:08:39.300Z,99268.53
2022-09-27T20:11:07.008Z,99266.72
2022-09-27T20:13:34.595Z,99269.38
2022-09-27T20:16:06.950Z,99273.56
2022-09-27T20:18:33.579Z,99273.59
2022-09-27T20:21:04.209Z,99271.84
2022-09-27T20:23:33.040Z,99264.78
2022-09-27T20:26:09.918Z,99266.44
2022-09-27T20:28:42.133Z,99262.50
2022-09-27T20:31:10.706Z,99262.47
2022-09-27T20:34:06.851Z,99252.84
2022-09-27T20:36:36.854Z,99253.94
2022-09-27T20:39:11.437Z,99252.03
2022-09-27T20:41:42.816Z,99257.16
2022-09-27T20:44:11.216Z,99250.97
2022-09-27T20:46:39.069Z,99246.78
2022-09-27T20:49:08.086Z,99253.97
2022-09-27T20:51:36.172Z,99246.19
2022-09-27T20:54:04.321Z,99243.53
2022-09-27T20:56:35.340Z,99247.09
2022-09-27T20:59:04.413Z,99242.81
2022-09-27T21:01:31.413Z,99250.31
2022-09-27T21:04:04.175Z,99253.69
2022-09-27T21:06:32.514Z,99252.03
2022-09-27T21:08:59.987Z,99248.38
2022-09-27T21:11:27.218Z,99246.25
2022-09-27T21:13:54.495Z,99242.78
2022-09-27T21:16:23.737Z,99242.13
2022-09-27T21:18:52.186Z,99246.59
2022-09-27T21:21:21.840Z,99243.38
2022-09-27T21:23:53.898Z,99252.69
2022-09-27T21:26:21.816Z,99248.22
2022-09-27T21:28:53.423Z,99250.28
2022-09-27T21:31:23.359Z,99257.38
2022-09-27T21:33:55.534Z,99252.34
2022-09-27T21:36:32.872Z,99259.69
2022-09-27T21:39:01.348Z,99260.19
2022-09-27T21:41:28.564Z,99260.97
2022-09-27T21:43:56.085Z,99253.25
2022-09-27T21:46:24.969Z,99257.66
2022-09-27T21:48:56.974Z,99264.16
2022-09-27T21:51:28.976Z,99262.66
2022-09-27T21:53:58.710Z,99265.47
2022-09-27T21:56:26.672Z,99268.97
2022-09-27T21:58:53.780Z,99271.53
2022-09-27T22:01:22.728Z,99262.66
2022-09-27T22:03:51.484Z,99274.53
2022-09-27T22:06:25.065Z,99277.00
2022-09-27T22:08:51.918Z,99274.19
2022-09-27T22:11:22.693Z,99269.81
2022-09-27T22:13:50.102Z,99274.16
2022-09-27T22:16:18.105Z,99274.06
2022-09-27T22:18:46.609Z,99257.47
2022-09-27T22:21:22.551Z,99263.28
2022-09-27T22:23:56.519Z,99270.16
2022-09-27T22:26:25.081Z,99270.72
2022-09-27T22:28:52.302Z,99270.66
2022-09-27T22:31:20.650Z,99266.50
2022-09-27T22:33:58.531Z,99270.56
2022-09-27T22:36:25.602Z,99270.88
2022-09-27T22:38:52.828Z,99270.41
2022-09-27T22:41:20.267Z,99271.00
2022-09-27T22:43:47.132Z,99270.03
2022-09-27T22:46:13.677Z,99270.84
2022-09-27T22:48:40.773Z,99272.72
2022-09-27T22:51:08.001Z,99274.72
2022-09-27T22:53:35.042Z,99269.38
2022-09-27T22:56:04.791Z,99264.31
2022-09-27T22:58:31.794Z,99281.03
2022-09-27T23:00:58.441Z,99272.75
2022-09-27T23:03:24.965Z,99275.59
2022-09-27T23:05:51.474Z,99269.50
2022-09-27T23:08:17.936Z,99272.03
2022-09-27T23:10:44.432Z,99273.59
2022-09-27T23:13:10.885Z,99280.19
2022-09-27T23:15:37.361Z,99278.06
2022-09-27T23:18:03.914Z,99272.53
2022-09-27T23:20:30.377Z,99268.84
2022-09-27T23:22:56.796Z,99270.28
2022-09-27T23:25:23.331Z,99273.69
2022-09-27T23:27:50.991Z,99271.06
2022-09-27T23:30:19.640Z,99273.06
2022-09-27T23:32:52.197Z,99275.81
2022-09-27T23:35:18.806Z,99268.84
2022-09-27T23:37:45.242Z,99267.00
2022-09-27T23:40:12.298Z,99269.25
2022-09-27T23:42:38.776Z,99264.00
2022-09-27T23:45:05.704Z,99260.31
2022-09-27T23:47:33.104Z,99262.19
2022-09-27T23:49:59.548Z,99264.72
2022-09-27T23:52:26.417Z,99264.81
2022-09-27T23:54:53.173Z,99257.22
2022-09-27T23:57:19.665Z,99264.16
2022-09-27T23:59:46.103Z,99258.81
